Time,TemperatureF,DewpointF,PressureIn,WindDirection,WindDirectionDegrees,WindSpeedMPH,WindSpeedGustMPH,Humidity,HourlyPrecipIn,Conditions,Clouds,dailyrainin,SoftwareType,DateUTC
2013-04-07 00:00:00,49.5,24.3,29.73,SW,225,4.0,7.0,37,0.00,,,0.00,meteohub,2013-04-07 04:00:00,
2013-04-07 00:01:00,49.5,24.3,29.73,SW,225,4.0,7.0,37,0.00,,,0.00,meteohub,2013-04-07 04:01:00,
2013-04-07 00:06:00,49.5,24.3,29.73,SW,225,4.0,6.0,37,0.00,,,0.00,meteohub,2013-04-07 04:06:00,
2013-04-07 00:12:00,49.6,23.7,29.73,South,180,3.0,6.0,36,0.00,,,0.00,meteohub,2013-04-07 04:12:00,
2013-04-07 00:17:00,49.8,23.9,29.72,South,180,5.0,5.0,36,0.00,,,0.00,meteohub,2013-04-07 04:17:00,
2013-04-07 00:22:00,50.0,23.4,29.72,South,180,3.0,5.0,35,0.00,,,0.00,meteohub,2013-04-07 04:22:00,
2013-04-07 00:27:00,50.2,23.5,29.72,SW,225,3.0,6.0,35,0.00,,,0.00,meteohub,2013-04-07 04:27:00,
2013-04-07 00:32:00,50.4,23.0,29.71,South,180,7.0,7.0,34,0.00,,,0.00,meteohub,2013-04-07 04:32:00,
2013-04-07 00:37:00,50.5,23.2,29.71,East,90,3.0,8.0,34,0.00,,,0.00,meteohub,2013-04-07 04:37:00,
2013-04-07 00:43:00,50.7,22.6,29.71,West,270,4.0,8.0,33,0.00,,,0.00,meteohub,2013-04-07 04:43:00,
2013-04-07 00:48:00,51.1,23.0,29.70,SW,225,2.0,8.0,33,0.00,,,0.00,meteohub,2013-04-07 04:48:00,
2013-04-07 00:53:00,51.3,23.2,29.70,South,180,5.0,8.0,33,0.00,,,0.00,meteohub,2013-04-07 04:53:00,
2013-04-07 00:58:00,51.3,23.9,29.70,SW,225,3.0,8.0,34,0.00,,,0.00,meteohub,2013-04-07 04:58:00,
2013-04-07 01:03:00,51.4,24.1,29.70,South,180,3.0,6.0,34,0.00,,,0.00,meteohub,2013-04-07 05:03:00,
2013-04-07 01:08:00,51.6,24.1,29.70,SE,135,3.0,7.0,34,0.00,,,0.00,meteohub,2013-04-07 05:08:00,
2013-04-07 01:14:00,51.6,24.1,29.70,North,0,3.0,7.0,34,0.00,,,0.00,meteohub,2013-04-07 05:14:00,
2013-04-07 01:19:00,51.8,23.5,29.69,South,180,3.0,6.0,33,0.00,,,0.00,meteohub,2013-04-07 05:19:00,
2013-04-07 01:25:00,52.2,23.9,29.69,SW,225,4.0,4.0,33,0.00,,,0.00,meteohub,2013-04-07 05:25:00,
2013-04-07 01:30:00,52.5,24.3,29.68,SW,225,4.0,6.0,33,0.00,,,0.00,meteohub,2013-04-07 05:30:00,
2013-04-07 01:35:00,52.7,24.4,29.68,SW,225,4.0,6.0,33,0.00,,,0.00,meteohub,2013-04-07 05:35:00,
2013-04-07 01:40:00,53.1,24.8,29.68,SW,225,4.0,7.0,33,0.00,,,0.00,meteohub,2013-04-07 05:40:00,
2013-04-07 01:45:00,53.6,25.2,29.67,South,180,6.0,8.0,33,0.00,,,0.00,meteohub,2013-04-07 05:45:00,
2013-04-07 01:50:00,54.1,25.7,29.67,South,180,7.0,8.0,33,0.00,,,0.00,meteohub,2013-04-07 05:50:00,
2013-04-07 01:55:00,54.5,26.8,29.66,SW,225,6.0,9.0,34,0.00,,,0.00,meteohub,2013-04-07 05:55:00,
2013-04-07 02:01:00,55.2,28.0,29.67,SW,225,5.0,9.0,35,0.00,,,0.00,meteohub,2013-04-07 06:01:00,
2013-04-07 02:06:00,55.2,28.0,29.67,SW,225,5.0,9.0,35,0.00,,,0.00,meteohub,2013-04-07 06:06:00,
2013-04-07 02:11:00,55.8,29.1,29.67,East,90,3.0,8.0,36,0.00,,,0.00,meteohub,2013-04-07 06:11:00,
2013-04-07 02:16:00,55.9,30.0,29.68,SW,225,8.0,8.0,37,0.00,,,0.00,meteohub,2013-04-07 06:16:00,
2013-04-07 02:21:00,55.8,33.1,29.67,South,180,9.0,9.0,42,0.00,,,0.00,meteohub,2013-04-07 06:21:00,
2013-04-07 02:26:00,55.0,35.2,29.65,SW,225,8.0,9.0,47,0.00,,,0.00,meteohub,2013-04-07 06:26:00,
2013-04-07 02:31:00,54.9,37.0,29.65,South,180,7.0,9.0,51,0.00,,,0.00,meteohub,2013-04-07 06:31:00,
2013-04-07 02:37:00,54.7,36.9,29.65,SW,225,4.0,9.0,51,0.00,,,0.00,meteohub,2013-04-07 06:37:00,
2013-04-07 02:42:00,54.3,36.5,29.64,South,180,4.0,8.0,51,0.00,,,0.00,meteohub,2013-04-07 06:42:00,
2013-04-07 02:47:00,54.0,36.3,29.64,South,180,4.0,7.0,51,0.00,,,0.00,meteohub,2013-04-07 06:47:00,
2013-04-07 02:52:00,53.8,35.6,29.63,SW,225,3.0,5.0,50,0.00,,,0.00,meteohub,2013-04-07 06:52:00,
2013-04-07 02:57:00,53.6,35.4,29.63,South,180,4.0,5.0,50,0.00,,,0.00,meteohub,2013-04-07 06:57:00,
2013-04-07 03:02:00,53.6,35.4,29.62,South,180,4.0,4.0,50,0.00,,,0.00,meteohub,2013-04-07 07:02:00,
2013-04-07 03:07:00,53.6,34.9,29.62,South,180,4.0,5.0,49,0.00,,,0.00,meteohub,2013-04-07 07:07:00,
2013-04-07 03:12:00,54.0,34.2,29.62,South,180,4.0,5.0,47,0.00,,,0.00,meteohub,2013-04-07 07:12:00,
2013-04-07 03:17:00,54.1,34.3,29.62,SW,225,3.0,5.0,47,0.00,,,0.00,meteohub,2013-04-07 07:17:00,
2013-04-07 03:22:00,54.3,34.5,29.61,SW,225,4.0,6.0,47,0.00,,,0.00,meteohub,2013-04-07 07:22:00,
2013-04-07 03:27:00,54.5,34.7,29.62,SW,225,4.0,7.0,47,0.00,,,0.00,meteohub,2013-04-07 07:27:00,
2013-04-07 03:33:00,54.7,34.3,29.61,NW,315,4.0,7.0,46,0.00,,,0.00,meteohub,2013-04-07 07:33:00,
2013-04-07 03:38:00,54.9,35.1,29.61,South,180,4.0,7.0,47,0.00,,,0.00,meteohub,2013-04-07 07:38:00,
2013-04-07 03:43:00,55.0,35.2,29.61,South,180,6.0,7.0,47,0.00,,,0.00,meteohub,2013-04-07 07:43:00,
2013-04-07 03:48:00,55.0,35.2,29.61,South,180,3.0,6.0,47,0.00,,,0.00,meteohub,2013-04-07 07:48:00,
2013-04-07 03:53:00,55.4,35.4,29.61,SW,225,4.0,8.0,47,0.00,,,0.00,meteohub,2013-04-07 07:53:00,
2013-04-07 03:58:00,55.6,35.6,29.61,South,180,6.0,9.0,47,0.00,,,0.00,meteohub,2013-04-07 07:58:00,
2013-04-07 04:03:00,55.8,35.8,29.60,South,180,4.0,9.0,47,0.00,,,0.00,meteohub,2013-04-07 08:03:00,
2013-04-07 04:09:00,55.9,36.5,29.60,SW,225,7.0,9.0,48,0.00,,,0.00,meteohub,2013-04-07 08:09:00,
2013-04-07 04:14:00,56.5,37.6,29.60,South,180,6.0,8.0,49,0.00,,,0.00,meteohub,2013-04-07 08:14:00,
2013-04-07 04:20:00,56.8,38.5,29.60,West,270,3.0,8.0,50,0.00,,,0.00,meteohub,2013-04-07 08:20:00,
2013-04-07 04:25:00,56.8,39.9,29.60,West,270,8.0,8.0,53,0.00,,,0.00,meteohub,2013-04-07 08:25:00,
2013-04-07 04:30:00,56.7,40.6,29.60,SW,225,5.0,8.0,55,0.00,,,0.00,meteohub,2013-04-07 08:30:00,
2013-04-07 04:35:00,56.7,41.2,29.60,SW,225,6.0,8.0,56,0.00,,,0.00,meteohub,2013-04-07 08:35:00,
2013-04-07 04:40:00,56.5,41.4,29.60,West,270,5.0,10.0,57,0.00,,,0.00,meteohub,2013-04-07 08:40:00,
2013-04-07 04:46:00,56.5,42.3,29.60,SW,225,8.0,10.0,59,0.00,,,0.00,meteohub,2013-04-07 08:46:00,
2013-04-07 04:51:00,56.3,42.1,29.59,SW,225,6.0,8.0,59,0.00,,,0.00,meteohub,2013-04-07 08:51:00,
2013-04-07 04:56:00,56.3,42.6,29.59,SW,225,4.0,8.0,60,0.00,,,0.00,meteohub,2013-04-07 08:56:00,
2013-04-07 05:01:00,56.3,42.6,29.58,West,270,9.0,9.0,60,0.00,,,0.00,meteohub,2013-04-07 09:01:00,
2013-04-07 05:07:00,56.3,42.6,29.58,SW,225,6.0,10.0,60,0.00,,,0.00,meteohub,2013-04-07 09:07:00,
2013-04-07 05:12:00,55.9,42.3,29.58,SW,225,5.0,10.0,60,0.00,,,0.00,meteohub,2013-04-07 09:12:00,
2013-04-07 05:17:00,55.6,42.3,29.57,SW,225,2.0,10.0,61,0.00,,,0.00,meteohub,2013-04-07 09:17:00,
2013-04-07 05:22:00,55.2,42.4,29.58,SW,225,4.0,6.0,62,0.00,,,0.00,meteohub,2013-04-07 09:22:00,
2013-04-07 05:27:00,55.2,42.4,29.58,South,180,4.0,6.0,62,0.00,,,0.00,meteohub,2013-04-07 09:27:00,
2013-04-07 05:32:00,55.2,42.4,29.58,East,90,3.0,6.0,62,0.00,,,0.00,meteohub,2013-04-07 09:32:00,
2013-04-07 05:37:00,55.0,41.9,29.58,North,0,4.0,6.0,61,0.00,,,0.00,meteohub,2013-04-07 09:37:00,
2013-04-07 05:42:00,55.0,41.9,29.58,SE,135,4.0,5.0,61,0.00,,,0.00,meteohub,2013-04-07 09:42:00,
2013-04-07 05:47:00,55.2,42.1,29.58,West,270,6.0,8.0,61,0.00,,,0.00,meteohub,2013-04-07 09:47:00,
2013-04-07 05:53:00,55.4,41.4,29.58,NW,315,4.0,8.0,59,0.00,,,0.00,meteohub,2013-04-07 09:53:00,
2013-04-07 05:58:00,56.1,41.9,29.58,SW,225,5.0,8.0,59,0.00,,,0.00,meteohub,2013-04-07 09:58:00,
2013-04-07 06:03:00,56.3,42.1,29.58,SW,225,8.0,8.0,59,0.00,,,0.00,meteohub,2013-04-07 10:03:00,
2013-04-07 06:08:00,56.8,42.3,29.58,SW,225,5.0,8.0,58,0.00,,,0.00,meteohub,2013-04-07 10:08:00,
2013-04-07 06:14:00,57.0,42.4,29.58,West,270,5.0,8.0,58,0.00,,,0.00,meteohub,2013-04-07 10:14:00,
2013-04-07 06:19:00,57.0,42.4,29.58,South,180,6.0,8.0,58,0.00,,,0.00,meteohub,2013-04-07 10:19:00,
2013-04-07 06:24:00,57.2,42.6,29.59,SW,225,4.0,9.0,58,0.00,,,0.00,meteohub,2013-04-07 10:24:00,
2013-04-07 06:29:00,57.4,42.8,29.59,West,270,4.0,10.0,58,0.00,,,0.00,meteohub,2013-04-07 10:29:00,
2013-04-07 06:34:00,57.2,42.6,29.59,NW,315,3.0,10.0,58,0.00,,,0.00,meteohub,2013-04-07 10:34:00,
2013-04-07 06:39:00,57.2,42.6,29.59,SW,225,3.0,10.0,58,0.00,,,0.00,meteohub,2013-04-07 10:39:00,
2013-04-07 06:44:00,57.2,43.0,29.60,NW,315,9.0,9.0,59,0.00,,,0.00,meteohub,2013-04-07 10:44:00,
2013-04-07 06:50:00,57.2,43.0,29.60,SW,225,5.0,11.0,59,0.00,,,0.00,meteohub,2013-04-07 10:50:00,
2013-04-07 06:55:00,57.0,43.3,29.61,SW,225,7.0,11.0,60,0.00,,,0.00,meteohub,2013-04-07 10:55:00,
2013-04-07 07:00:00,56.8,43.5,29.60,SW,225,4.0,9.0,61,0.00,,,0.00,meteohub,2013-04-07 11:00:00,
2013-04-07 07:05:00,56.7,43.7,29.61,SW,225,6.0,10.0,62,0.00,,,0.00,meteohub,2013-04-07 11:05:00,
2013-04-07 07:10:00,56.3,43.9,29.61,South,180,6.0,10.0,63,0.00,,,0.00,meteohub,2013-04-07 11:10:00,
2013-04-07 07:15:00,56.3,43.9,29.61,NW,315,11.0,11.0,63,0.00,,,0.00,meteohub,2013-04-07 11:15:00,
2013-04-07 07:20:00,56.1,44.1,29.62,West,270,2.0,11.0,64,0.00,,,0.00,meteohub,2013-04-07 11:20:00,
2013-04-07 07:25:00,56.1,44.1,29.62,South,180,7.0,11.0,64,0.00,,,0.00,meteohub,2013-04-07 11:25:00,
2013-04-07 07:31:00,55.9,44.4,29.62,SE,135,8.0,11.0,65,0.00,,,0.00,meteohub,2013-04-07 11:31:00,
2013-04-07 07:37:00,55.9,44.4,29.62,SW,225,8.0,10.0,65,0.00,,,0.00,meteohub,2013-04-07 11:37:00,
2013-04-07 07:42:00,55.8,44.2,29.63,West,270,4.0,11.0,65,0.00,,,0.00,meteohub,2013-04-07 11:42:00,
2013-04-07 07:47:00,55.8,44.2,29.63,SW,225,8.0,11.0,65,0.00,,,0.00,meteohub,2013-04-07 11:47:00,
2013-04-07 07:52:00,55.8,44.2,29.63,NW,315,8.0,13.0,65,0.00,,,0.00,meteohub,2013-04-07 11:52:00,
2013-04-07 07:57:00,55.8,44.2,29.63,SW,225,8.0,13.0,65,0.00,,,0.00,meteohub,2013-04-07 11:57:00,
2013-04-07 08:02:00,55.8,44.2,29.64,West,270,7.0,13.0,65,0.00,,,0.00,meteohub,2013-04-07 12:02:00,
2013-04-07 08:07:00,55.8,44.6,29.64,SW,225,4.0,12.0,66,0.00,,,0.00,meteohub,2013-04-07 12:07:00,
2013-04-07 08:12:00,55.6,44.4,29.64,West,270,8.0,8.0,66,0.00,,,0.00,meteohub,2013-04-07 12:12:00,
2013-04-07 08:18:00,55.6,44.4,29.65,SW,225,4.0,8.0,66,0.00,,,0.00,meteohub,2013-04-07 12:18:00,
2013-04-07 08:23:00,55.6,44.4,29.65,NW,315,5.0,13.0,66,0.00,,,0.00,meteohub,2013-04-07 12:23:00,
2013-04-07 08:28:00,55.2,44.4,29.66,North,0,4.0,13.0,67,0.00,,,0.00,meteohub,2013-04-07 12:28:00,
2013-04-07 08:34:00,54.9,44.1,29.66,SW,225,7.0,13.0,67,0.00,,,0.00,meteohub,2013-04-07 12:34:00,
2013-04-07 08:39:00,54.5,44.2,29.67,NW,315,5.0,13.0,68,0.00,,,0.00,meteohub,2013-04-07 12:39:00,
2013-04-07 08:45:00,54.3,44.1,29.67,South,180,5.0,13.0,68,0.00,,,0.00,meteohub,2013-04-07 12:45:00,
2013-04-07 08:50:00,54.1,43.9,29.68,West,270,6.0,15.0,68,0.00,,,0.00,meteohub,2013-04-07 12:50:00,
2013-04-07 08:55:00,54.0,43.7,29.68,South,180,4.0,15.0,68,0.00,,,0.00,meteohub,2013-04-07 12:55:00,
2013-04-07 09:00:00,53.8,43.2,29.68,West,270,10.0,10.0,67,0.00,,,0.00,meteohub,2013-04-07 13:00:00,
2013-04-07 09:06:00,53.2,42.6,29.69,West,270,5.0,15.0,67,0.00,,,0.00,meteohub,2013-04-07 13:06:00,
2013-04-07 09:11:00,53.1,42.4,29.69,West,270,7.0,15.0,67,0.00,,,0.00,meteohub,2013-04-07 13:11:00,
2013-04-07 09:16:00,52.9,42.6,29.70,NW,315,4.0,15.0,68,0.00,,,0.00,meteohub,2013-04-07 13:16:00,
2013-04-07 09:22:00,52.2,42.3,29.71,SW,225,4.0,15.0,69,0.00,,,0.00,meteohub,2013-04-07 13:22:00,
2013-04-07 09:27:00,51.1,41.7,29.71,North,0,4.0,15.0,70,0.00,,,0.00,meteohub,2013-04-07 13:27:00,
2013-04-07 09:32:00,50.5,41.2,29.71,SW,225,7.0,8.0,70,0.00,,,0.00,meteohub,2013-04-07 13:32:00,
2013-04-07 09:37:00,50.4,41.4,29.71,West,270,8.0,8.0,71,0.00,,,0.00,meteohub,2013-04-07 13:37:00,
2013-04-07 09:42:00,50.0,41.0,29.72,NW,315,4.0,12.0,71,0.00,,,0.00,meteohub,2013-04-07 13:42:00,
2013-04-07 09:47:00,49.8,41.2,29.73,SW,225,4.0,12.0,72,0.00,,,0.00,meteohub,2013-04-07 13:47:00,
2013-04-07 09:52:00,49.8,40.8,29.73,SW,225,3.0,12.0,71,0.00,,,0.00,meteohub,2013-04-07 13:52:00,
2013-04-07 09:57:00,49.6,40.6,29.73,South,180,9.0,11.0,71,0.00,,,0.00,meteohub,2013-04-07 13:57:00,
2013-04-07 10:03:00,49.6,40.6,29.74,NW,315,3.0,11.0,71,0.00,,,0.00,meteohub,2013-04-07 14:03:00,
2013-04-07 10:08:00,49.5,40.1,29.73,NW,315,8.0,11.0,70,0.00,,,0.00,meteohub,2013-04-07 14:08:00,
2013-04-07 10:13:00,49.1,39.0,29.74,West,270,7.0,13.0,68,0.00,,,0.00,meteohub,2013-04-07 14:13:00,
2013-04-07 10:18:00,48.7,38.7,29.74,West,270,3.0,13.0,68,0.00,,,0.00,meteohub,2013-04-07 14:18:00,
2013-04-07 10:23:00,48.6,38.5,29.75,West,270,11.0,13.0,68,0.00,,,0.00,meteohub,2013-04-07 14:23:00,
2013-04-07 10:28:00,48.0,37.9,29.75,SW,225,11.0,11.0,68,0.00,,,0.00,meteohub,2013-04-07 14:28:00,
2013-04-07 10:34:00,47.7,37.6,29.76,SW,225,7.0,11.0,68,0.00,,,0.00,meteohub,2013-04-07 14:34:00,
2013-04-07 10:39:00,47.5,37.8,29.76,NW,315,7.0,13.0,69,0.00,,,0.00,meteohub,2013-04-07 14:39:00,
2013-04-07 10:44:00,47.5,37.8,29.76,NW,315,5.0,13.0,69,0.00,,,0.00,meteohub,2013-04-07 14:44:00,
2013-04-07 10:49:00,47.5,37.8,29.76,NW,315,4.0,13.0,69,0.00,,,0.00,meteohub,2013-04-07 14:49:00,
2013-04-07 10:54:00,47.5,37.4,29.77,SW,225,3.0,11.0,68,0.00,,,0.00,meteohub,2013-04-07 14:54:00,
2013-04-07 11:00:00,47.5,37.4,29.77,West,270,3.0,11.0,68,0.00,,,0.00,meteohub,2013-04-07 15:00:00,
2013-04-07 11:05:00,46.8,36.7,29.78,West,270,3.0,11.0,68,0.00,,,0.00,meteohub,2013-04-07 15:05:00,
2013-04-07 11:10:00,46.6,36.5,29.78,West,270,2.0,5.0,68,0.00,,,0.00,meteohub,2013-04-07 15:10:00,
2013-04-07 11:15:00,46.4,36.5,29.78,West,270,2.0,5.0,68,0.00,,,0.00,meteohub,2013-04-07 15:15:00,
2013-04-07 11:20:00,46.4,36.5,29.79,North,0,3.0,5.0,68,0.00,,,0.00,meteohub,2013-04-07 15:20:00,
2013-04-07 11:26:00,46.6,37.0,29.79,SW,225,3.0,4.0,69,0.00,,,0.00,meteohub,2013-04-07 15:26:00,
2013-04-07 11:31:00,46.6,36.5,29.79,North,0,3.0,11.0,68,0.00,,,0.00,meteohub,2013-04-07 15:31:00,
2013-04-07 11:36:00,46.8,36.7,29.80,North,0,5.0,11.0,68,0.00,,,0.00,meteohub,2013-04-07 15:36:00,
2013-04-07 11:42:00,46.8,36.3,29.80,North,0,6.0,11.0,67,0.00,,,0.00,meteohub,2013-04-07 15:42:00,
2013-04-07 11:47:00,46.8,36.3,29.80,North,0,4.0,9.0,67,0.00,,,0.00,meteohub,2013-04-07 15:47:00,
2013-04-07 11:52:00,46.8,36.3,29.80,NW,315,6.0,8.0,67,0.00,,,0.00,meteohub,2013-04-07 15:52:00,
2013-04-07 11:57:00,46.8,36.0,29.81,NW,315,3.0,6.0,66,0.00,,,0.00,meteohub,2013-04-07 15:57:00,
2013-04-07 12:02:00,47.1,36.3,29.81,North,0,4.0,6.0,66,0.00,,,0.00,meteohub,2013-04-07 16:02:00,
2013-04-07 12:07:00,47.3,36.5,29.81,West,270,6.0,11.0,66,0.00,,,0.00,meteohub,2013-04-07 16:07:00,
2013-04-07 12:12:00,47.3,36.1,29.81,NW,315,4.0,11.0,65,0.00,,,0.00,meteohub,2013-04-07 16:12:00,
2013-04-07 12:18:00,47.1,36.0,29.81,NW,315,4.0,11.0,65,0.00,,,0.00,meteohub,2013-04-07 16:18:00,
2013-04-07 12:23:00,47.1,36.0,29.81,SW,225,7.0,7.0,65,0.00,,,0.00,meteohub,2013-04-07 16:23:00,
2013-04-07 12:29:00,47.3,36.1,29.81,NE,45,3.0,7.0,65,0.00,,,0.00,meteohub,2013-04-07 16:29:00,
2013-04-07 12:34:00,47.3,36.1,29.82,North,0,6.0,7.0,65,0.00,,,0.00,meteohub,2013-04-07 16:34:00,
2013-04-07 12:39:00,47.1,36.0,29.82,NW,315,6.0,10.0,65,0.00,,,0.00,meteohub,2013-04-07 16:39:00,
2013-04-07 12:44:00,47.1,36.0,29.83,NW,315,4.0,10.0,65,0.00,,,0.00,meteohub,2013-04-07 16:44:00,
2013-04-07 12:49:00,47.1,36.0,29.83,North,0,5.0,10.0,65,0.00,,,0.00,meteohub,2013-04-07 16:49:00,
2013-04-07 12:55:00,47.3,36.1,29.83,NW,315,3.0,8.0,65,0.00,,,0.00,meteohub,2013-04-07 16:55:00,
2013-04-07 13:00:00,47.3,36.1,29.83,NW,315,5.0,6.0,65,0.00,,,0.00,meteohub,2013-04-07 17:00:00,
2013-04-07 13:05:00,47.3,35.8,29.83,West,270,4.0,6.0,64,0.00,,,0.00,meteohub,2013-04-07 17:05:00,
2013-04-07 13:10:00,47.5,36.0,29.83,West,270,3.0,6.0,64,0.00,,,0.00,meteohub,2013-04-07 17:10:00,
2013-04-07 13:15:00,47.8,36.3,29.83,North,0,4.0,6.0,64,0.00,,,0.00,meteohub,2013-04-07 17:15:00,
2013-04-07 13:21:00,48.2,35.8,29.84,NW,315,5.0,5.0,62,0.00,,,0.00,meteohub,2013-04-07 17:21:00,
2013-04-07 13:26:00,48.0,35.6,29.84,West,270,4.0,7.0,62,0.00,,,0.00,meteohub,2013-04-07 17:26:00,
2013-04-07 13:31:00,47.8,35.4,29.84,NW,315,4.0,7.0,62,0.00,,,0.00,meteohub,2013-04-07 17:31:00,
2013-04-07 13:36:00,47.7,35.2,29.85,North,0,11.0,11.0,62,0.00,,,0.00,meteohub,2013-04-07 17:36:00,
2013-04-07 13:41:00,47.7,35.2,29.85,North,0,5.0,11.0,62,0.00,,,0.00,meteohub,2013-04-07 17:41:00,
2013-04-07 13:47:00,47.8,35.4,29.85,NW,315,4.0,11.0,62,0.00,,,0.00,meteohub,2013-04-07 17:47:00,
2013-04-07 13:52:00,48.2,34.9,29.85,SW,225,4.0,11.0,60,0.00,,,0.00,meteohub,2013-04-07 17:52:00,
2013-04-07 13:57:00,48.2,34.9,29.85,South,180,2.0,10.0,60,0.00,,,0.00,meteohub,2013-04-07 17:57:00,
2013-04-07 14:03:00,48.4,35.1,29.86,West,270,3.0,10.0,60,0.00,,,0.00,meteohub,2013-04-07 18:03:00,
2013-04-07 14:08:00,48.0,34.9,29.86,West,270,6.0,6.0,60,0.00,,,0.00,meteohub,2013-04-07 18:08:00,
2013-04-07 14:13:00,48.2,34.9,29.86,NW,315,6.0,6.0,60,0.00,,,0.00,meteohub,2013-04-07 18:13:00,
2013-04-07 14:18:00,48.0,34.9,29.86,West,270,4.0,6.0,60,0.00,,,0.00,meteohub,2013-04-07 18:18:00,
2013-04-07 14:23:00,47.8,34.7,29.87,SW,225,4.0,6.0,60,0.00,,,0.00,meteohub,2013-04-07 18:23:00,
2013-04-07 14:29:00,47.8,35.1,29.87,North,0,3.0,6.0,61,0.00,,,0.00,meteohub,2013-04-07 18:29:00,
2013-04-07 14:34:00,48.0,34.9,29.87,NW,315,4.0,7.0,60,0.00,,,0.00,meteohub,2013-04-07 18:34:00,
2013-04-07 14:41:00,48.2,34.5,29.88,North,0,4.0,11.0,59,0.00,,,0.00,meteohub,2013-04-07 18:41:00,
2013-04-07 14:47:00,48.2,33.6,29.88,NW,315,4.0,11.0,57,0.00,,,0.00,meteohub,2013-04-07 18:47:00,
2013-04-07 14:52:00,48.4,33.8,29.88,NW,315,4.0,9.0,57,0.00,,,0.00,meteohub,2013-04-07 18:52:00,
2013-04-07 14:57:00,48.4,33.8,29.88,West,270,5.0,9.0,57,0.00,,,0.00,meteohub,2013-04-07 18:57:00,
2013-04-07 15:02:00,48.6,34.0,29.89,SW,225,8.0,8.0,57,0.00,,,0.00,meteohub,2013-04-07 19:02:00,
2013-04-07 15:07:00,48.7,34.2,29.89,SW,225,6.0,8.0,57,0.00,,,0.00,meteohub,2013-04-07 19:07:00,
2013-04-07 15:12:00,49.1,34.5,29.88,North,0,2.0,8.0,57,0.00,,,0.00,meteohub,2013-04-07 19:12:00,
2013-04-07 15:17:00,49.3,34.2,29.89,NW,315,4.0,8.0,56,0.00,,,0.00,meteohub,2013-04-07 19:17:00,
2013-04-07 15:22:00,50.5,34.5,29.89,North,0,8.0,11.0,54,0.00,,,0.00,meteohub,2013-04-07 19:22:00,
2013-04-07 15:28:00,50.5,34.0,29.88,NE,45,6.0,11.0,53,0.00,,,0.00,meteohub,2013-04-07 19:28:00,
2013-04-07 15:33:00,50.5,34.0,29.89,SW,225,10.0,11.0,53,0.00,,,0.00,meteohub,2013-04-07 19:33:00,
2013-04-07 15:38:00,50.0,33.6,29.89,West,270,4.0,10.0,53,0.00,,,0.00,meteohub,2013-04-07 19:38:00,
2013-04-07 15:43:00,50.0,33.6,29.89,North,0,4.0,10.0,53,0.00,,,0.00,meteohub,2013-04-07 19:43:00,
2013-04-07 15:48:00,50.4,33.8,29.89,NW,315,4.0,10.0,53,0.00,,,0.00,meteohub,2013-04-07 19:48:00,
2013-04-07 15:53:00,50.2,33.3,29.90,North,0,5.0,7.0,52,0.00,,,0.00,meteohub,2013-04-07 19:53:00,
2013-04-07 15:58:00,50.2,33.3,29.90,North,0,4.0,7.0,52,0.00,,,0.00,meteohub,2013-04-07 19:58:00,
2013-04-07 16:04:00,50.0,33.1,29.90,North,0,7.0,7.0,52,0.00,,,0.00,meteohub,2013-04-07 20:04:00,
2013-04-07 16:10:00,50.5,34.0,29.90,North,0,7.0,8.0,53,0.00,,,0.00,meteohub,2013-04-07 20:10:00,
2013-04-07 16:15:00,51.4,34.0,29.90,NW,315,6.0,11.0,51,0.00,,,0.00,meteohub,2013-04-07 20:15:00,
2013-04-07 16:20:00,51.8,33.3,29.90,NW,315,4.0,11.0,49,0.00,,,0.00,meteohub,2013-04-07 20:20:00,
2013-04-07 16:25:00,52.0,32.9,29.90,West,270,4.0,11.0,48,0.00,,,0.00,meteohub,2013-04-07 20:25:00,
2013-04-07 16:30:00,52.5,33.4,29.91,NW,315,10.0,11.0,48,0.00,,,0.00,meteohub,2013-04-07 20:30:00,
2013-04-07 16:36:00,51.8,32.2,29.91,North,0,5.0,10.0,47,0.00,,,0.00,meteohub,2013-04-07 20:36:00,
2013-04-07 16:41:00,51.4,32.4,29.91,NW,315,4.0,10.0,48,0.00,,,0.00,meteohub,2013-04-07 20:41:00,
2013-04-07 16:46:00,50.7,32.2,29.91,NW,315,4.0,10.0,49,0.00,,,0.00,meteohub,2013-04-07 20:46:00,
2013-04-07 16:51:00,50.7,32.7,29.91,NW,315,5.0,8.0,50,0.00,,,0.00,meteohub,2013-04-07 20:51:00,
2013-04-07 16:56:00,51.1,33.6,29.91,NW,315,4.0,8.0,51,0.00,,,0.00,meteohub,2013-04-07 20:56:00,
2013-04-07 17:02:00,51.6,33.6,29.92,North,0,3.0,6.0,50,0.00,,,0.00,meteohub,2013-04-07 21:02:00,
2013-04-07 17:07:00,51.8,32.7,29.92,NW,315,5.0,7.0,48,0.00,,,0.00,meteohub,2013-04-07 21:07:00,
2013-04-07 17:12:00,51.4,32.9,29.92,North,0,4.0,7.0,49,0.00,,,0.00,meteohub,2013-04-07 21:12:00,
2013-04-07 17:17:00,51.4,32.9,29.92,West,270,4.0,7.0,49,0.00,,,0.00,meteohub,2013-04-07 21:17:00,
2013-04-07 17:22:00,52.0,32.9,29.92,NW,315,4.0,6.0,48,0.00,,,0.00,meteohub,2013-04-07 21:22:00,
2013-04-07 17:27:00,51.8,31.6,29.92,WNW,293,3.0,5.0,46,0.00,,,0.00,meteohub,2013-04-07 21:27:00,
2013-04-07 17:32:00,51.4,32.4,29.92,North,0,8.0,8.0,48,0.00,,,0.00,meteohub,2013-04-07 21:32:00,
2013-04-07 17:38:00,51.3,32.2,29.93,NW,315,3.0,8.0,48,0.00,,,0.00,meteohub,2013-04-07 21:38:00,
2013-04-07 17:43:00,51.1,32.5,29.93,ENE,68,6.0,8.0,49,0.00,,,0.00,meteohub,2013-04-07 21:43:00,
2013-04-07 17:48:00,50.9,31.8,29.93,West,270,4.0,8.0,48,0.00,,,0.00,meteohub,2013-04-07 21:48:00,
2013-04-07 17:53:00,51.3,32.7,29.93,North,0,4.0,8.0,49,0.00,,,0.00,meteohub,2013-04-07 21:53:00,
2013-04-07 17:58:00,51.6,33.1,29.93,NE,45,5.0,8.0,49,0.00,,,0.00,meteohub,2013-04-07 21:58:00,
2013-04-07 18:05:00,51.6,32.5,29.93,NW,315,5.0,8.0,48,0.00,,,0.00,meteohub,2013-04-07 22:05:00,
2013-04-07 18:10:00,51.6,32.5,29.93,NW,315,2.0,5.0,48,0.00,,,0.00,meteohub,2013-04-07 22:10:00,
2013-04-07 18:15:00,51.8,32.2,29.94,North,0,3.0,5.0,47,0.00,,,0.00,meteohub,2013-04-07 22:15:00,
2013-04-07 18:20:00,51.4,31.8,29.94,North,0,5.0,6.0,47,0.00,,,0.00,meteohub,2013-04-07 22:20:00,
2013-04-07 18:25:00,50.9,31.8,29.94,North,0,3.0,6.0,48,0.00,,,0.00,meteohub,2013-04-07 22:25:00,
2013-04-07 18:30:00,50.7,32.2,29.94,North,0,3.0,6.0,49,0.00,,,0.00,meteohub,2013-04-07 22:30:00,
2013-04-07 18:36:00,50.7,32.2,29.94,North,0,5.0,5.0,49,0.00,,,0.00,meteohub,2013-04-07 22:36:00,
2013-04-07 18:41:00,50.4,32.0,29.94,West,270,2.0,5.0,49,0.00,,,0.00,meteohub,2013-04-07 22:41:00,
2013-04-07 18:46:00,50.4,32.0,29.94,SW,225,2.0,5.0,49,0.00,,,0.00,meteohub,2013-04-07 22:46:00,
2013-04-07 18:51:00,50.2,31.8,29.94,NW,315,3.0,5.0,49,0.00,,,0.00,meteohub,2013-04-07 22:51:00,
2013-04-07 18:52:00,50.2,31.8,29.95,NW,315,2.0,5.0,49,0.00,,,0.00,meteohub,2013-04-07 22:52:00,
2013-04-07 18:57:00,50.0,31.6,29.94,NW,315,2.0,4.0,49,0.00,,,0.00,meteohub,2013-04-07 22:57:00,
2013-04-07 19:00:00,49.8,32.4,29.95,NW,315,0.0,4.0,51,0.00,,,0.00,meteohub,2013-04-07 23:00:00,
2013-04-07 19:02:00,49.6,32.2,29.95,NW,315,4.0,4.0,51,0.00,,,0.00,meteohub,2013-04-07 23:02:00,
2013-04-07 19:07:00,49.3,32.0,29.94,North,0,4.0,4.0,51,0.00,,,0.00,meteohub,2013-04-07 23:07:00,
2013-04-07 19:16:00,48.4,31.6,29.94,NW,315,2.0,6.0,52,0.00,,,0.00,meteohub,2013-04-07 23:16:00,
2013-04-07 19:21:00,48.2,31.5,29.95,North,0,2.0,6.0,52,0.00,,,0.00,meteohub,2013-04-07 23:21:00,
2013-04-07 19:26:00,48.0,32.2,29.94,North,0,0.0,4.0,54,0.00,,,0.00,meteohub,2013-04-07 23:26:00,
2013-04-07 19:31:00,47.7,31.8,29.94,NW,315,2.0,4.0,54,0.00,,,0.00,meteohub,2013-04-07 23:31:00,
2013-04-07 19:36:00,47.5,32.2,29.95,North,0,2.0,3.0,55,0.00,,,0.00,meteohub,2013-04-07 23:36:00,
2013-04-07 19:42:00,47.1,31.8,29.95,NE,45,2.0,3.0,55,0.00,,,0.00,meteohub,2013-04-07 23:42:00,
2013-04-07 19:47:00,46.9,31.6,29.95,North,0,0.0,3.0,55,0.00,,,0.00,meteohub,2013-04-07 23:47:00,
2013-04-07 19:52:00,46.6,31.3,29.95,North,0,0.0,3.0,55,0.00,,,0.00,meteohub,2013-04-07 23:52:00,
2013-04-07 19:57:00,46.4,31.1,29.95,NW,315,0.0,3.0,55,0.00,,,0.00,meteohub,2013-04-07 23:57:00,
2013-04-07 20:02:00,46.0,30.4,29.95,North,0,0.0,1.0,54,0.00,,,0.00,meteohub,2013-04-08 00:02:00,
2013-04-07 20:07:00,45.7,30.4,29.95,North,0,0.0,1.0,55,0.00,,,0.00,meteohub,2013-04-08 00:07:00,
2013-04-07 20:12:00,45.3,30.0,29.95,North,0,0.0,0.0,55,0.00,,,0.00,meteohub,2013-04-08 00:12:00,
2013-04-07 20:17:00,45.0,29.8,29.96,North,0,0.0,0.0,55,0.00,,,0.00,meteohub,2013-04-08 00:17:00,
2013-04-07 20:22:00,44.6,29.8,29.96,North,0,0.0,0.0,56,0.00,,,0.00,meteohub,2013-04-08 00:22:00,
2013-04-07 20:28:00,44.1,29.8,29.97,North,0,0.0,0.0,57,0.00,,,0.00,meteohub,2013-04-08 00:28:00,
2013-04-07 20:33:00,43.5,29.7,29.96,North,0,0.0,0.0,58,0.00,,,0.00,meteohub,2013-04-08 00:33:00,
2013-04-07 20:38:00,43.2,29.3,29.96,North,0,0.0,0.0,58,0.00,,,0.00,meteohub,2013-04-08 00:38:00,
2013-04-07 20:43:00,42.4,29.5,29.97,North,0,0.0,0.0,60,0.00,,,0.00,meteohub,2013-04-08 00:43:00,
2013-04-07 20:48:00,41.7,28.9,29.97,North,0,0.0,0.0,60,0.00,,,0.00,meteohub,2013-04-08 00:48:00,
2013-04-07 20:54:00,41.2,28.8,29.97,North,0,0.0,0.0,61,0.00,,,0.00,meteohub,2013-04-08 00:54:00,
2013-04-07 20:59:00,40.6,29.1,29.96,North,0,0.0,0.0,63,0.00,,,0.00,meteohub,2013-04-08 00:59:00,
2013-04-07 21:04:00,40.3,29.1,29.97,North,0,0.0,0.0,64,0.00,,,0.00,meteohub,2013-04-08 01:04:00,
2013-04-07 21:09:00,39.6,28.4,29.97,North,0,0.0,0.0,64,0.00,,,0.00,meteohub,2013-04-08 01:09:00,
2013-04-07 21:14:00,39.0,28.2,29.97,North,0,0.0,0.0,65,0.00,,,0.00,meteohub,2013-04-08 01:14:00,
2013-04-07 21:21:00,38.7,28.2,29.97,North,0,0.0,0.0,66,0.00,,,0.00,meteohub,2013-04-08 01:21:00,
2013-04-07 21:26:00,38.1,27.9,29.97,North,0,0.0,0.0,66,0.00,,,0.00,meteohub,2013-04-08 01:26:00,
2013-04-07 21:31:00,37.6,27.3,29.98,North,0,0.0,0.0,66,0.00,,,0.00,meteohub,2013-04-08 01:31:00,
2013-04-07 21:36:00,37.2,25.7,29.98,North,0,0.0,0.0,63,0.00,,,0.00,meteohub,2013-04-08 01:36:00,
2013-04-07 21:42:00,37.0,25.7,29.98,North,0,0.0,0.0,63,0.00,,,0.00,meteohub,2013-04-08 01:42:00,
2013-04-07 21:47:00,36.7,25.7,29.98,North,0,0.0,0.0,64,0.00,,,0.00,meteohub,2013-04-08 01:47:00,
2013-04-07 21:52:00,36.5,25.5,29.98,North,0,0.0,0.0,64,0.00,,,0.00,meteohub,2013-04-08 01:52:00,
2013-04-07 21:57:00,36.3,25.7,29.98,North,0,0.0,0.0,65,0.00,,,0.00,meteohub,2013-04-08 01:57:00,
2013-04-07 22:02:00,36.0,25.3,29.98,North,0,0.0,0.0,65,0.00,,,0.00,meteohub,2013-04-08 02:02:00,
2013-04-07 22:07:00,35.8,25.2,29.98,North,0,0.0,0.0,65,0.00,,,0.00,meteohub,2013-04-08 02:07:00,
2013-04-07 22:12:00,35.6,25.3,29.98,North,0,0.0,0.0,66,0.00,,,0.00,meteohub,2013-04-08 02:12:00,
2013-04-07 22:17:00,35.6,25.3,29.98,North,0,0.0,0.0,66,0.00,,,0.00,meteohub,2013-04-08 02:17:00,
2013-04-07 22:23:00,35.4,25.9,29.99,North,0,0.0,0.0,68,0.00,,,0.00,meteohub,2013-04-08 02:23:00,
2013-04-07 22:28:00,35.4,25.9,29.99,North,0,0.0,0.0,68,0.00,,,0.00,meteohub,2013-04-08 02:28:00,
2013-04-07 22:33:00,35.2,25.7,29.99,North,0,0.0,0.0,68,0.00,,,0.00,meteohub,2013-04-08 02:33:00,
2013-04-07 22:38:00,35.2,26.1,29.99,North,0,0.0,0.0,69,0.00,,,0.00,meteohub,2013-04-08 02:38:00,
2013-04-07 22:43:00,35.2,26.4,29.99,North,0,0.0,0.0,70,0.00,,,0.00,meteohub,2013-04-08 02:43:00,
2013-04-07 22:49:00,35.2,26.4,29.99,North,0,0.0,0.0,70,0.00,,,0.00,meteohub,2013-04-08 02:49:00,
2013-04-07 22:54:00,35.2,26.8,29.99,North,0,0.0,0.0,71,0.00,,,0.00,meteohub,2013-04-08 02:54:00,
2013-04-07 23:00:00,35.2,26.8,29.99,North,0,0.0,0.0,71,0.00,,,0.00,meteohub,2013-04-08 03:00:00,
2013-04-07 23:05:00,35.2,26.8,29.99,North,0,0.0,0.0,71,0.00,,,0.00,meteohub,2013-04-08 03:05:00,
2013-04-07 23:10:00,35.2,26.8,29.99,North,0,0.0,0.0,71,0.00,,,0.00,meteohub,2013-04-08 03:10:00,
2013-04-07 23:15:00,35.1,26.6,29.99,North,0,0.0,0.0,71,0.00,,,0.00,meteohub,2013-04-08 03:15:00,
2013-04-07 23:20:00,35.1,26.6,29.99,North,0,0.0,0.0,71,0.00,,,0.00,meteohub,2013-04-08 03:20:00,
2013-04-07 23:25:00,34.9,26.8,29.98,North,0,0.0,0.0,72,0.00,,,0.00,meteohub,2013-04-08 03:25:00,
2013-04-07 23:30:00,34.7,26.6,29.99,North,0,0.0,0.0,72,0.00,,,0.00,meteohub,2013-04-08 03:30:00,
2013-04-07 23:37:00,34.5,26.4,29.99,North,0,0.0,0.0,72,0.00,,,0.00,meteohub,2013-04-08 03:37:00,
2013-04-07 23:42:00,34.2,26.1,29.99,North,0,0.0,0.0,72,0.00,,,0.00,meteohub,2013-04-08 03:42:00,
2013-04-07 23:50:00,34.2,26.1,29.99,North,0,0.0,0.0,72,0.00,,,0.00,meteohub,2013-04-08 03:50:00,
2013-04-07 23:55:00,33.1,25.3,29.99,North,0,0.0,0.0,73,0.00,,,0.00,meteohub,2013-04-08 03:55:00,